sensor_id;sensor_type;location;lat;lon;timestamp;P1;durP1;ratioP1;P2;durP2;ratioP2
60243;SDS011;46106;51.468;5.814;2023-04-09T00:00:40;152.25;;;54.35;;
60243;SDS011;46106;51.468;5.814;2023-04-09T00:03:06;151.35;;;51.72;;
60243;SDS011;46106;51.468;5.814;2023-04-09T00:05:31;154.45;;;54.17;;
60243;SDS011;46106;51.468;5.814;2023-04-09T00:07:57;142.68;;;50.97;;
60243;SDS011;46106;51.468;5.814;2023-04-09T00:10:23;157.27;;;54.15;;
60243;SDS011;46106;51.468;5.814;2023-04-09T00:12:48;159.95;;;53.80;;
60243;SDS011;46106;51.468;5.814;2023-04-09T00:15:14;157.35;;;54.50;;
60243;SDS011;46106;51.468;5.814;2023-04-09T00:17:40;154.95;;;55.00;;
60243;SDS011;46106;51.468;5.814;2023-04-09T00:20:05;169.05;;;55.17;;
60243;SDS011;46106;51.468;5.814;2023-04-09T00:22:32;154.32;;;53.97;;
60243;SDS011;46106;51.468;5.814;2023-04-09T00:24:57;151.70;;;53.97;;
60243;SDS011;46106;51.468;5.814;2023-04-09T00:27:22;156.27;;;56.70;;
60243;SDS011;46106;51.468;5.814;2023-04-09T00:29:48;158.45;;;57.13;;
60243;SDS011;46106;51.468;5.814;2023-04-09T00:32:13;166.88;;;58.42;;
60243;SDS011;46106;51.468;5.814;2023-04-09T00:34:39;174.15;;;59.83;;
60243;SDS011;46106;51.468;5.814;2023-04-09T00:37:05;184.50;;;58.88;;
60243;SDS011;46106;51.468;5.814;2023-04-09T00:39:30;163.38;;;58.38;;
60243;SDS011;46106;51.468;5.814;2023-04-09T00:41:56;167.63;;;57.95;;
60243;SDS011;46106;51.468;5.814;2023-04-09T00:44:23;166.48;;;56.83;;
60243;SDS011;46106;51.468;5.814;2023-04-09T00:46:49;166.32;;;59.17;;
60243;SDS011;46106;51.468;5.814;2023-04-09T00:49:15;172.70;;;61.17;;
60243;SDS011;46106;51.468;5.814;2023-04-09T00:51:40;175.60;;;61.33;;
60243;SDS011;46106;51.468;5.814;2023-04-09T00:54:08;166.82;;;60.38;;
60243;SDS011;46106;51.468;5.814;2023-04-09T00:56:34;176.13;;;61.10;;
60243;SDS011;46106;51.468;5.814;2023-04-09T00:59:00;188.82;;;64.82;;
60243;SDS011;46106;51.468;5.814;2023-04-09T01:01:26;170.98;;;60.22;;
60243;SDS011;46106;51.468;5.814;2023-04-09T01:03:52;184.93;;;63.03;;
60243;SDS011;46106;51.468;5.814;2023-04-09T01:06:24;179.30;;;61.28;;
60243;SDS011;46106;51.468;5.814;2023-04-09T01:12:07;178.05;;;60.20;;
60243;SDS011;46106;51.468;5.814;2023-04-09T01:15:13;182.85;;;62.80;;
60243;SDS011;46106;51.468;5.814;2023-04-09T01:22:48;183.40;;;60.83;;
60243;SDS011;46106;51.468;5.814;2023-04-09T01:28:44;180.45;;;62.70;;
60243;SDS011;46106;51.468;5.814;2023-04-09T01:33:39;190.50;;;60.53;;
60243;SDS011;46106;51.468;5.814;2023-04-09T01:36:06;188.85;;;62.25;;
60243;SDS011;46106;51.468;5.814;2023-04-09T01:38:35;194.30;;;65.75;;
60243;SDS011;46106;51.468;5.814;2023-04-09T01:41:04;193.05;;;66.03;;
60243;SDS011;46106;51.468;5.814;2023-04-09T01:43:32;188.52;;;60.50;;
60243;SDS011;46106;51.468;5.814;2023-04-09T01:45:59;184.10;;;61.40;;
60243;SDS011;46106;51.468;5.814;2023-04-09T01:48:28;187.95;;;62.78;;
60243;SDS011;46106;51.468;5.814;2023-04-09T01:50:54;178.70;;;58.88;;
60243;SDS011;46106;51.468;5.814;2023-04-09T01:53:20;183.15;;;62.70;;
60243;SDS011;46106;51.468;5.814;2023-04-09T01:55:46;175.27;;;59.17;;
60243;SDS011;46106;51.468;5.814;2023-04-09T01:58:12;185.95;;;60.67;;
60243;SDS011;46106;51.468;5.814;2023-04-09T02:00:38;184.57;;;61.45;;
60243;SDS011;46106;51.468;5.814;2023-04-09T02:03:10;177.25;;;60.45;;
60243;SDS011;46106;51.468;5.814;2023-04-09T02:05:48;183.85;;;60.67;;
60243;SDS011;46106;51.468;5.814;2023-04-09T02:08:20;181.23;;;60.67;;
60243;SDS011;46106;51.468;5.814;2023-04-09T02:10:48;165.85;;;56.72;;
60243;SDS011;46106;51.468;5.814;2023-04-09T02:13:18;182.07;;;60.95;;
60243;SDS011;46106;51.468;5.814;2023-04-09T02:15:44;187.35;;;59.10;;
60243;SDS011;46106;51.468;5.814;2023-04-09T02:18:24;186.15;;;61.20;;
60243;SDS011;46106;51.468;5.814;2023-04-09T02:20:54;190.98;;;58.63;;
60243;SDS011;46106;51.468;5.814;2023-04-09T02:23:20;185.88;;;57.65;;
60243;SDS011;46106;51.468;5.814;2023-04-09T02:25:46;182.35;;;57.35;;
60243;SDS011;46106;51.468;5.814;2023-04-09T02:28:12;177.82;;;59.10;;
60243;SDS011;46106;51.468;5.814;2023-04-09T02:30:37;177.40;;;56.88;;
60243;SDS011;46106;51.468;5.814;2023-04-09T02:33:03;173.20;;;55.97;;
60243;SDS011;46106;51.468;5.814;2023-04-09T02:35:28;173.68;;;54.22;;
60243;SDS011;46106;51.468;5.814;2023-04-09T02:37:54;167.15;;;53.78;;
60243;SDS011;46106;51.468;5.814;2023-04-09T02:40:19;176.15;;;54.67;;
60243;SDS011;46106;51.468;5.814;2023-04-09T02:42:45;184.73;;;56.33;;
60243;SDS011;46106;51.468;5.814;2023-04-09T02:45:10;181.65;;;56.00;;
60243;SDS011;46106;51.468;5.814;2023-04-09T02:47:39;172.73;;;55.08;;
60243;SDS011;46106;51.468;5.814;2023-04-09T02:50:04;178.82;;;56.35;;
60243;SDS011;46106;51.468;5.814;2023-04-09T02:52:30;171.32;;;54.85;;
60243;SDS011;46106;51.468;5.814;2023-04-09T02:54:56;171.57;;;55.22;;
60243;SDS011;46106;51.468;5.814;2023-04-09T02:57:21;167.27;;;53.90;;
60243;SDS011;46106;51.468;5.814;2023-04-09T02:59:46;173.95;;;52.75;;
60243;SDS011;46106;51.468;5.814;2023-04-09T03:02:12;173.32;;;55.35;;
60243;SDS011;46106;51.468;5.814;2023-04-09T03:04:37;184.63;;;57.63;;
60243;SDS011;46106;51.468;5.814;2023-04-09T03:07:03;175.18;;;54.80;;
60243;SDS011;46106;51.468;5.814;2023-04-09T03:09:29;177.35;;;55.90;;
60243;SDS011;46106;51.468;5.814;2023-04-09T03:11:55;171.85;;;55.33;;
60243;SDS011;46106;51.468;5.814;2023-04-09T03:14:21;181.45;;;56.55;;
60243;SDS011;46106;51.468;5.814;2023-04-09T03:16:50;163.27;;;51.97;;
60243;SDS011;46106;51.468;5.814;2023-04-09T03:19:15;148.77;;;47.95;;
60243;SDS011;46106;51.468;5.814;2023-04-09T03:21:41;162.98;;;51.47;;
60243;SDS011;46106;51.468;5.814;2023-04-09T03:24:07;151.48;;;49.30;;
60243;SDS011;46106;51.468;5.814;2023-04-09T03:26:32;154.52;;;50.22;;
60243;SDS011;46106;51.468;5.814;2023-04-09T03:29:01;145.50;;;48.75;;
60243;SDS011;46106;51.468;5.814;2023-04-09T03:31:27;154.30;;;49.00;;
60243;SDS011;46106;51.468;5.814;2023-04-09T03:33:53;153.45;;;49.97;;
60243;SDS011;46106;51.468;5.814;2023-04-09T03:36:18;146.68;;;47.70;;
60243;SDS011;46106;51.468;5.814;2023-04-09T03:38:44;147.88;;;46.92;;
60243;SDS011;46106;51.468;5.814;2023-04-09T03:41:09;154.77;;;47.13;;
60243;SDS011;46106;51.468;5.814;2023-04-09T03:43:36;153.10;;;47.80;;
60243;SDS011;46106;51.468;5.814;2023-04-09T03:46:09;150.93;;;45.05;;
60243;SDS011;46106;51.468;5.814;2023-04-09T03:48:39;152.80;;;47.35;;
60243;SDS011;46106;51.468;5.814;2023-04-09T03:51:05;141.88;;;45.92;;
60243;SDS011;46106;51.468;5.814;2023-04-09T03:53:30;147.18;;;47.13;;
60243;SDS011;46106;51.468;5.814;2023-04-09T03:55:56;146.95;;;47.45;;
60243;SDS011;46106;51.468;5.814;2023-04-09T03:58:21;145.52;;;46.80;;
60243;SDS011;46106;51.468;5.814;2023-04-09T04:00:47;148.10;;;46.15;;
60243;SDS011;46106;51.468;5.814;2023-04-09T04:03:12;139.57;;;46.88;;
60243;SDS011;46106;51.468;5.814;2023-04-09T04:05:40;133.88;;;43.78;;
60243;SDS011;46106;51.468;5.814;2023-04-09T04:08:06;145.32;;;45.40;;
60243;SDS011;46106;51.468;5.814;2023-04-09T04:10:32;135.32;;;45.25;;
60243;SDS011;46106;51.468;5.814;2023-04-09T04:12:58;144.23;;;45.47;;
60243;SDS011;46106;51.468;5.814;2023-04-09T04:15:26;143.85;;;46.25;;
60243;SDS011;46106;51.468;5.814;2023-04-09T04:17:52;139.23;;;43.20;;
60243;SDS011;46106;51.468;5.814;2023-04-09T04:20:18;139.65;;;46.13;;
60243;SDS011;46106;51.468;5.814;2023-04-09T04:22:43;145.57;;;43.55;;
60243;SDS011;46106;51.468;5.814;2023-04-09T04:25:09;139.13;;;44.17;;
60243;SDS011;46106;51.468;5.814;2023-04-09T04:27:35;142.13;;;45.72;;
60243;SDS011;46106;51.468;5.814;2023-04-09T04:30:00;147.43;;;46.35;;
60243;SDS011;46106;51.468;5.814;2023-04-09T04:32:26;146.82;;;46.00;;
60243;SDS011;46106;51.468;5.814;2023-04-09T04:34:52;153.15;;;44.95;;
60243;SDS011;46106;51.468;5.814;2023-04-09T04:37:17;146.20;;;44.83;;
60243;SDS011;46106;51.468;5.814;2023-04-09T04:39:43;138.60;;;44.88;;
60243;SDS011;46106;51.468;5.814;2023-04-09T04:42:08;146.45;;;44.60;;
60243;SDS011;46106;51.468;5.814;2023-04-09T04:44:34;155.45;;;45.70;;
60243;SDS011;46106;51.468;5.814;2023-04-09T04:46:59;139.25;;;44.72;;
60243;SDS011;46106;51.468;5.814;2023-04-09T04:49:27;138.65;;;44.20;;
60243;SDS011;46106;51.468;5.814;2023-04-09T04:51:53;134.43;;;46.90;;
60243;SDS011;46106;51.468;5.814;2023-04-09T04:54:18;141.57;;;44.97;;
60243;SDS011;46106;51.468;5.814;2023-04-09T04:56:44;149.15;;;44.50;;
60243;SDS011;46106;51.468;5.814;2023-04-09T04:59:09;139.98;;;46.55;;
60243;SDS011;46106;51.468;5.814;2023-04-09T05:01:35;152.25;;;46.25;;
60243;SDS011;46106;51.468;5.814;2023-04-09T05:04:00;160.57;;;46.85;;
60243;SDS011;46106;51.468;5.814;2023-04-09T05:06:28;163.73;;;49.75;;
60243;SDS011;46106;51.468;5.814;2023-04-09T05:08:54;158.40;;;46.33;;
60243;SDS011;46106;51.468;5.814;2023-04-09T05:11:22;159.15;;;51.15;;
60243;SDS011;46106;51.468;5.814;2023-04-09T05:13:48;141.70;;;46.17;;
60243;SDS011;46106;51.468;5.814;2023-04-09T05:16:15;143.02;;;45.88;;
60243;SDS011;46106;51.468;5.814;2023-04-09T05:18:44;148.65;;;48.47;;
60243;SDS011;46106;51.468;5.814;2023-04-09T05:21:09;147.80;;;46.08;;
60243;SDS011;46106;51.468;5.814;2023-04-09T05:23:34;155.93;;;47.47;;
60243;SDS011;46106;51.468;5.814;2023-04-09T05:26:00;150.77;;;47.08;;
60243;SDS011;46106;51.468;5.814;2023-04-09T05:28:25;151.88;;;47.20;;
60243;SDS011;46106;51.468;5.814;2023-04-09T05:30:51;149.43;;;46.63;;
60243;SDS011;46106;51.468;5.814;2023-04-09T05:33:16;147.98;;;46.80;;
60243;SDS011;46106;51.468;5.814;2023-04-09T05:35:42;145.63;;;44.35;;
60243;SDS011;46106;51.468;5.814;2023-04-09T05:38:07;154.90;;;45.30;;
60243;SDS011;46106;51.468;5.814;2023-04-09T05:40:33;144.38;;;44.15;;
60243;SDS011;46106;51.468;5.814;2023-04-09T05:42:59;146.32;;;46.10;;
60243;SDS011;46106;51.468;5.814;2023-04-09T05:45:25;149.07;;;44.97;;
60243;SDS011;46106;51.468;5.814;2023-04-09T05:47:52;144.63;;;44.78;;
60243;SDS011;46106;51.468;5.814;2023-04-09T05:50:18;143.48;;;46.10;;
60243;SDS011;46106;51.468;5.814;2023-04-09T05:52:44;134.73;;;44.97;;
60243;SDS011;46106;51.468;5.814;2023-04-09T05:55:10;141.48;;;45.60;;
60243;SDS011;46106;51.468;5.814;2023-04-09T05:57:35;140.20;;;45.90;;
60243;SDS011;46106;51.468;5.814;2023-04-09T06:00:01;144.05;;;45.92;;
60243;SDS011;46106;51.468;5.814;2023-04-09T06:02:27;142.68;;;47.50;;
60243;SDS011;46106;51.468;5.814;2023-04-09T06:04:53;158.32;;;48.63;;
60243;SDS011;46106;51.468;5.814;2023-04-09T06:07:18;145.75;;;46.75;;
60243;SDS011;46106;51.468;5.814;2023-04-09T06:09:43;145.27;;;47.33;;
60243;SDS011;46106;51.468;5.814;2023-04-09T06:12:11;139.48;;;46.70;;
60243;SDS011;46106;51.468;5.814;2023-04-09T06:14:39;141.15;;;46.03;;
60243;SDS011;46106;51.468;5.814;2023-04-09T06:17:05;138.57;;;46.67;;
60243;SDS011;46106;51.468;5.814;2023-04-09T06:19:30;136.65;;;46.10;;
60243;SDS011;46106;51.468;5.814;2023-04-09T06:21:56;130.23;;;44.92;;
60243;SDS011;46106;51.468;5.814;2023-04-09T06:24:21;132.57;;;45.38;;
60243;SDS011;46106;51.468;5.814;2023-04-09T06:26:47;131.30;;;46.20;;
60243;SDS011;46106;51.468;5.814;2023-04-09T06:29:13;131.95;;;46.17;;
60243;SDS011;46106;51.468;5.814;2023-04-09T06:31:38;134.77;;;47.60;;
60243;SDS011;46106;51.468;5.814;2023-04-09T06:34:04;131.82;;;45.75;;
60243;SDS011;46106;51.468;5.814;2023-04-09T06:36:29;130.25;;;45.75;;
60243;SDS011;46106;51.468;5.814;2023-04-09T06:38:56;113.32;;;42.88;;
60243;SDS011;46106;51.468;5.814;2023-04-09T06:41:23;131.50;;;44.97;;
60243;SDS011;46106;51.468;5.814;2023-04-09T06:43:49;142.38;;;47.35;;
60243;SDS011;46106;51.468;5.814;2023-04-09T06:46:15;142.48;;;44.97;;
60243;SDS011;46106;51.468;5.814;2023-04-09T06:48:44;123.63;;;44.10;;
60243;SDS011;46106;51.468;5.814;2023-04-09T06:51:10;135.82;;;48.30;;
60243;SDS011;46106;51.468;5.814;2023-04-09T06:53:39;132.00;;;46.95;;
60243;SDS011;46106;51.468;5.814;2023-04-09T06:56:05;124.65;;;44.40;;
60243;SDS011;46106;51.468;5.814;2023-04-09T06:58:30;132.50;;;47.15;;
60243;SDS011;46106;51.468;5.814;2023-04-09T07:00:56;114.68;;;43.95;;
60243;SDS011;46106;51.468;5.814;2023-04-09T07:03:22;125.30;;;45.42;;
60243;SDS011;46106;51.468;5.814;2023-04-09T07:05:47;118.93;;;44.50;;
60243;SDS011;46106;51.468;5.814;2023-04-09T07:08:13;115.32;;;44.40;;
60243;SDS011;46106;51.468;5.814;2023-04-09T07:10:39;121.05;;;44.97;;
60243;SDS011;46106;51.468;5.814;2023-04-09T07:13:04;119.20;;;44.88;;
60243;SDS011;46106;51.468;5.814;2023-04-09T07:15:30;108.03;;;43.78;;
60243;SDS011;46106;51.468;5.814;2023-04-09T07:17:56;109.10;;;43.05;;
60243;SDS011;46106;51.468;5.814;2023-04-09T07:20:21;101.45;;;43.97;;
60243;SDS011;46106;51.468;5.814;2023-04-09T07:22:47;106.88;;;42.92;;
60243;SDS011;46106;51.468;5.814;2023-04-09T07:25:13;97.93;;;41.45;;
60243;SDS011;46106;51.468;5.814;2023-04-09T07:27:39;97.25;;;41.22;;
60243;SDS011;46106;51.468;5.814;2023-04-09T07:30:05;108.28;;;42.08;;
60243;SDS011;46106;51.468;5.814;2023-04-09T07:32:31;93.88;;;41.83;;
60243;SDS011;46106;51.468;5.814;2023-04-09T07:34:56;103.00;;;42.28;;
60243;SDS011;46106;51.468;5.814;2023-04-09T07:37:23;83.45;;;36.80;;
60243;SDS011;46106;51.468;5.814;2023-04-09T07:39:49;87.78;;;39.03;;
60243;SDS011;46106;51.468;5.814;2023-04-09T07:42:15;81.95;;;37.15;;
60243;SDS011;46106;51.468;5.814;2023-04-09T07:44:41;84.03;;;36.78;;
60243;SDS011;46106;51.468;5.814;2023-04-09T07:47:08;81.90;;;35.05;;
60243;SDS011;46106;51.468;5.814;2023-04-09T07:49:36;78.50;;;31.90;;
60243;SDS011;46106;51.468;5.814;2023-04-09T07:52:02;69.85;;;30.67;;
60243;SDS011;46106;51.468;5.814;2023-04-09T07:54:29;70.90;;;31.77;;
60243;SDS011;46106;51.468;5.814;2023-04-09T07:56:55;79.03;;;32.03;;
60243;SDS011;46106;51.468;5.814;2023-04-09T07:59:21;71.40;;;30.80;;
60243;SDS011;46106;51.468;5.814;2023-04-09T08:01:48;73.32;;;32.28;;
60243;SDS011;46106;51.468;5.814;2023-04-09T08:04:13;68.05;;;30.80;;
60243;SDS011;46106;51.468;5.814;2023-04-09T08:06:39;69.30;;;30.33;;
60243;SDS011;46106;51.468;5.814;2023-04-09T08:09:06;62.58;;;27.80;;
60243;SDS011;46106;51.468;5.814;2023-04-09T08:11:31;62.33;;;27.77;;
60243;SDS011;46106;51.468;5.814;2023-04-09T08:13:57;71.95;;;28.73;;
60243;SDS011;46106;51.468;5.814;2023-04-09T08:16:25;58.25;;;26.98;;
60243;SDS011;46106;51.468;5.814;2023-04-09T08:18:50;61.65;;;26.77;;
60243;SDS011;46106;51.468;5.814;2023-04-09T08:21:16;65.53;;;28.42;;
60243;SDS011;46106;51.468;5.814;2023-04-09T08:23:42;57.22;;;26.02;;
60243;SDS011;46106;51.468;5.814;2023-04-09T08:26:08;58.13;;;27.15;;
60243;SDS011;46106;51.468;5.814;2023-04-09T08:28:33;52.45;;;24.25;;
60243;SDS011;46106;51.468;5.814;2023-04-09T08:30:59;53.28;;;25.48;;
60243;SDS011;46106;51.468;5.814;2023-04-09T08:33:24;51.63;;;25.63;;
60243;SDS011;46106;51.468;5.814;2023-04-09T08:35:50;53.78;;;25.80;;
60243;SDS011;46106;51.468;5.814;2023-04-09T08:38:17;52.22;;;23.75;;
60243;SDS011;46106;51.468;5.814;2023-04-09T08:40:43;57.38;;;25.42;;
60243;SDS011;46106;51.468;5.814;2023-04-09T08:43:09;54.35;;;25.60;;
60243;SDS011;46106;51.468;5.814;2023-04-09T08:45:38;59.88;;;25.85;;
60243;SDS011;46106;51.468;5.814;2023-04-09T08:48:05;58.15;;;25.27;;
60243;SDS011;46106;51.468;5.814;2023-04-09T08:50:33;56.42;;;27.13;;
60243;SDS011;46106;51.468;5.814;2023-04-09T08:53:01;56.97;;;27.05;;
60243;SDS011;46106;51.468;5.814;2023-04-09T08:55:28;52.35;;;27.90;;
60243;SDS011;46106;51.468;5.814;2023-04-09T08:57:55;58.70;;;27.50;;
60243;SDS011;46106;51.468;5.814;2023-04-09T09:00:22;58.83;;;28.52;;
60243;SDS011;46106;51.468;5.814;2023-04-09T09:03:04;56.55;;;26.77;;
60243;SDS011;46106;51.468;5.814;2023-04-09T09:05:37;61.20;;;27.65;;
60243;SDS011;46106;51.468;5.814;2023-04-09T09:08:03;56.83;;;26.60;;
60243;SDS011;46106;51.468;5.814;2023-04-09T09:10:50;51.03;;;25.95;;
60243;SDS011;46106;51.468;5.814;2023-04-09T09:13:19;58.22;;;28.73;;
60243;SDS011;46106;51.468;5.814;2023-04-09T09:15:50;50.17;;;26.42;;
60243;SDS011;46106;51.468;5.814;2023-04-09T09:18:19;48.58;;;25.92;;
60243;SDS011;46106;51.468;5.814;2023-04-09T09:20:46;48.88;;;24.70;;
60243;SDS011;46106;51.468;5.814;2023-04-09T09:23:12;53.25;;;26.23;;
60243;SDS011;46106;51.468;5.814;2023-04-09T09:25:38;54.80;;;25.73;;
60243;SDS011;46106;51.468;5.814;2023-04-09T09:28:08;43.13;;;22.35;;
60243;SDS011;46106;51.468;5.814;2023-04-09T09:30:35;46.90;;;22.58;;
60243;SDS011;46106;51.468;5.814;2023-04-09T09:33:03;45.33;;;22.83;;
60243;SDS011;46106;51.468;5.814;2023-04-09T09:35:54;44.17;;;22.13;;
60243;SDS011;46106;51.468;5.814;2023-04-09T09:38:21;44.63;;;22.40;;
60243;SDS011;46106;51.468;5.814;2023-04-09T09:40:47;42.80;;;20.98;;
60243;SDS011;46106;51.468;5.814;2023-04-09T09:43:13;41.25;;;19.55;;
60243;SDS011;46106;51.468;5.814;2023-04-09T09:45:39;38.92;;;18.05;;
60243;SDS011;46106;51.468;5.814;2023-04-09T09:48:06;32.55;;;16.00;;
60243;SDS011;46106;51.468;5.814;2023-04-09T09:50:33;32.72;;;16.60;;
60243;SDS011;46106;51.468;5.814;2023-04-09T09:53:03;33.70;;;16.95;;
60243;SDS011;46106;51.468;5.814;2023-04-09T09:55:39;35.05;;;16.70;;
60243;SDS011;46106;51.468;5.814;2023-04-09T09:58:09;31.40;;;15.93;;
60243;SDS011;46106;51.468;5.814;2023-04-09T10:00:56;24.88;;;13.85;;
60243;SDS011;46106;51.468;5.814;2023-04-09T10:03:24;27.58;;;13.98;;
60243;SDS011;46106;51.468;5.814;2023-04-09T10:05:52;24.23;;;13.10;;
60243;SDS011;46106;51.468;5.814;2023-04-09T10:08:18;27.95;;;12.45;;
60243;SDS011;46106;51.468;5.814;2023-04-09T10:10:45;21.83;;;11.05;;
60243;SDS011;46106;51.468;5.814;2023-04-09T10:13:19;25.60;;;13.02;;
60243;SDS011;46106;51.468;5.814;2023-04-09T10:15:48;24.50;;;12.20;;
60243;SDS011;46106;51.468;5.814;2023-04-09T10:18:15;21.05;;;12.07;;
60243;SDS011;46106;51.468;5.814;2023-04-09T10:20:45;22.90;;;12.40;;
60243;SDS011;46106;51.468;5.814;2023-04-09T10:26:04;29.73;;;12.47;;
60243;SDS011;46106;51.468;5.814;2023-04-09T10:28:30;26.92;;;14.13;;
60243;SDS011;46106;51.468;5.814;2023-04-09T10:30:56;23.50;;;12.00;;
60243;SDS011;46106;51.468;5.814;2023-04-09T10:33:23;24.67;;;12.88;;
60243;SDS011;46106;51.468;5.814;2023-04-09T10:35:51;27.13;;;12.15;;
60243;SDS011;46106;51.468;5.814;2023-04-09T10:38:31;28.38;;;12.75;;
60243;SDS011;46106;51.468;5.814;2023-04-09T10:40:57;28.80;;;12.25;;
60243;SDS011;46106;51.468;5.814;2023-04-09T10:48:33;25.80;;;12.10;;
60243;SDS011;46106;51.468;5.814;2023-04-09T10:51:11;21.38;;;11.40;;
60243;SDS011;46106;51.468;5.814;2023-04-09T11:27:20;25.67;;;13.15;;
60243;SDS011;46106;51.468;5.814;2023-04-09T11:29:46;27.70;;;13.63;;
60243;SDS011;46106;51.468;5.814;2023-04-09T11:32:11;22.92;;;12.15;;
60243;SDS011;46106;51.468;5.814;2023-04-09T11:34:37;24.73;;;12.35;;
60243;SDS011;46106;51.468;5.814;2023-04-09T11:37:03;23.88;;;13.57;;
60243;SDS011;46106;51.468;5.814;2023-04-09T11:42:12;25.30;;;12.40;;
60243;SDS011;46106;51.468;5.814;2023-04-09T11:44:38;24.98;;;12.95;;
60243;SDS011;46106;51.468;5.814;2023-04-09T11:47:05;21.98;;;12.45;;
60243;SDS011;46106;51.468;5.814;2023-04-09T11:49:33;19.30;;;10.38;;
60243;SDS011;46106;51.468;5.814;2023-04-09T12:04:55;22.92;;;11.55;;
60243;SDS011;46106;51.468;5.814;2023-04-09T12:07:20;29.02;;;12.93;;
60243;SDS011;46106;51.468;5.814;2023-04-09T12:09:46;24.75;;;11.70;;
60243;SDS011;46106;51.468;5.814;2023-04-09T12:12:16;23.27;;;12.23;;
60243;SDS011;46106;51.468;5.814;2023-04-09T12:40:17;24.23;;;14.00;;
60243;SDS011;46106;51.468;5.814;2023-04-09T12:42:44;29.63;;;13.88;;
60243;SDS011;46106;51.468;5.814;2023-04-09T12:45:12;26.02;;;13.30;;
60243;SDS011;46106;51.468;5.814;2023-04-09T12:47:41;28.10;;;15.30;;
60243;SDS011;46106;51.468;5.814;2023-04-09T12:50:10;26.50;;;13.85;;
60243;SDS011;46106;51.468;5.814;2023-04-09T12:52:37;26.55;;;13.65;;
60243;SDS011;46106;51.468;5.814;2023-04-09T12:55:03;24.92;;;13.88;;
60243;SDS011;46106;51.468;5.814;2023-04-09T12:57:29;27.13;;;13.75;;
60243;SDS011;46106;51.468;5.814;2023-04-09T13:02:44;20.30;;;10.63;;
60243;SDS011;46106;51.468;5.814;2023-04-09T13:05:09;16.42;;;10.07;;
60243;SDS011;46106;51.468;5.814;2023-04-09T13:07:35;25.85;;;10.55;;
60243;SDS011;46106;51.468;5.814;2023-04-09T13:10:00;20.13;;;10.75;;
60243;SDS011;46106;51.468;5.814;2023-04-09T13:53:57;18.42;;;9.77;;
60243;SDS011;46106;51.468;5.814;2023-04-09T13:56:23;22.45;;;10.13;;
60243;SDS011;46106;51.468;5.814;2023-04-09T13:58:49;25.65;;;11.35;;
60243;SDS011;46106;51.468;5.814;2023-04-09T14:03:48;20.58;;;11.55;;
60243;SDS011;46106;51.468;5.814;2023-04-09T14:06:14;18.15;;;8.98;;
60243;SDS011;46106;51.468;5.814;2023-04-09T14:39:41;12.43;;;7.28;;
60243;SDS011;46106;51.468;5.814;2023-04-09T14:42:09;16.27;;;7.43;;
60243;SDS011;46106;51.468;5.814;2023-04-09T14:44:35;15.75;;;7.25;;
60243;SDS011;46106;51.468;5.814;2023-04-09T14:47:00;13.90;;;7.20;;
60243;SDS011;46106;51.468;5.814;2023-04-09T14:49:26;14.77;;;7.60;;
60243;SDS011;46106;51.468;5.814;2023-04-09T14:51:51;12.50;;;6.65;;
60243;SDS011;46106;51.468;5.814;2023-04-09T14:54:17;11.60;;;6.95;;
60243;SDS011;46106;51.468;5.814;2023-04-09T14:56:43;14.35;;;6.85;;
60243;SDS011;46106;51.468;5.814;2023-04-09T14:59:08;13.32;;;7.18;;
60243;SDS011;46106;51.468;5.814;2023-04-09T15:01:33;14.13;;;6.65;;
60243;SDS011;46106;51.468;5.814;2023-04-09T15:03:59;20.92;;;7.90;;
60243;SDS011;46106;51.468;5.814;2023-04-09T15:06:24;17.00;;;8.57;;
60243;SDS011;46106;51.468;5.814;2023-04-09T15:08:50;15.55;;;8.07;;
60243;SDS011;46106;51.468;5.814;2023-04-09T15:11:16;14.45;;;7.68;;
60243;SDS011;46106;51.468;5.814;2023-04-09T15:13:43;16.88;;;8.95;;
60243;SDS011;46106;51.468;5.814;2023-04-09T15:16:10;17.90;;;8.93;;
60243;SDS011;46106;51.468;5.814;2023-04-09T15:18:44;16.23;;;9.13;;
60243;SDS011;46106;51.468;5.814;2023-04-09T15:21:10;19.95;;;8.63;;
60243;SDS011;46106;51.468;5.814;2023-04-09T15:23:35;18.23;;;8.73;;
60243;SDS011;46106;51.468;5.814;2023-04-09T15:26:01;16.73;;;8.77;;
60243;SDS011;46106;51.468;5.814;2023-04-09T15:28:26;15.20;;;7.95;;
60243;SDS011;46106;51.468;5.814;2023-04-09T15:30:53;15.70;;;8.38;;
60243;SDS011;46106;51.468;5.814;2023-04-09T15:33:18;13.15;;;7.43;;
60243;SDS011;46106;51.468;5.814;2023-04-09T15:35:44;18.35;;;8.30;;
60243;SDS011;46106;51.468;5.814;2023-04-09T15:38:09;15.73;;;8.18;;
60243;SDS011;46106;51.468;5.814;2023-04-09T15:40:35;16.55;;;8.55;;
60243;SDS011;46106;51.468;5.814;2023-04-09T15:43:00;17.55;;;8.27;;
60243;SDS011;46106;51.468;5.814;2023-04-09T15:45:26;14.23;;;8.27;;
60243;SDS011;46106;51.468;5.814;2023-04-09T15:47:51;14.50;;;7.57;;
60243;SDS011;46106;51.468;5.814;2023-04-09T15:50:16;16.27;;;8.60;;
60243;SDS011;46106;51.468;5.814;2023-04-09T15:52:42;19.52;;;8.80;;
60243;SDS011;46106;51.468;5.814;2023-04-09T15:55:07;22.95;;;11.25;;
60243;SDS011;46106;51.468;5.814;2023-04-09T15:57:33;19.48;;;10.02;;
60243;SDS011;46106;51.468;5.814;2023-04-09T15:59:59;37.63;;;15.55;;
60243;SDS011;46106;51.468;5.814;2023-04-09T16:02:24;18.42;;;8.93;;
60243;SDS011;46106;51.468;5.814;2023-04-09T16:04:50;17.00;;;7.85;;
60243;SDS011;46106;51.468;5.814;2023-04-09T16:07:15;126.10;;;47.08;;
60243;SDS011;46106;51.468;5.814;2023-04-09T16:09:41;20.00;;;8.95;;
60243;SDS011;46106;51.468;5.814;2023-04-09T16:12:07;14.68;;;7.88;;
60243;SDS011;46106;51.468;5.814;2023-04-09T16:14:32;262.20;;;103.30;;
60243;SDS011;46106;51.468;5.814;2023-04-09T16:16:58;23.55;;;11.73;;
60243;SDS011;46106;51.468;5.814;2023-04-09T16:19:23;22.40;;;11.02;;
60243;SDS011;46106;51.468;5.814;2023-04-09T16:21:50;21.13;;;9.48;;
60243;SDS011;46106;51.468;5.814;2023-04-09T16:24:16;21.23;;;9.80;;
60243;SDS011;46106;51.468;5.814;2023-04-09T16:26:42;22.15;;;12.02;;
60243;SDS011;46106;51.468;5.814;2023-04-09T16:29:08;14.57;;;8.00;;
60243;SDS011;46106;51.468;5.814;2023-04-09T16:31:34;15.15;;;6.90;;
60243;SDS011;46106;51.468;5.814;2023-04-09T16:34:01;14.90;;;6.47;;
60243;SDS011;46106;51.468;5.814;2023-04-09T16:36:27;13.75;;;7.40;;
60243;SDS011;46106;51.468;5.814;2023-04-09T16:38:53;15.48;;;8.15;;
60243;SDS011;46106;51.468;5.814;2023-04-09T16:41:18;16.40;;;7.30;;
60243;SDS011;46106;51.468;5.814;2023-04-09T16:43:44;12.68;;;6.53;;
60243;SDS011;46106;51.468;5.814;2023-04-09T16:46:14;8.77;;;5.40;;
60243;SDS011;46106;51.468;5.814;2023-04-09T16:48:40;9.40;;;5.03;;
60243;SDS011;46106;51.468;5.814;2023-04-09T16:51:06;9.30;;;5.10;;
60243;SDS011;46106;51.468;5.814;2023-04-09T16:53:31;19.75;;;8.05;;
60243;SDS011;46106;51.468;5.814;2023-04-09T16:55:57;11.43;;;5.97;;
60243;SDS011;46106;51.468;5.814;2023-04-09T16:58:23;10.95;;;6.22;;
60243;SDS011;46106;51.468;5.814;2023-04-09T17:00:49;17.85;;;8.55;;
60243;SDS011;46106;51.468;5.814;2023-04-09T17:03:14;11.90;;;6.03;;
60243;SDS011;46106;51.468;5.814;2023-04-09T17:05:40;19.17;;;6.53;;
60243;SDS011;46106;51.468;5.814;2023-04-09T17:08:05;8.98;;;5.78;;